sensor_id;sensor_type;location;lat;lon;timestamp;temperature;humidity
10263;DHT22;5177;50.068;8.156;2023-07-31T00:01:46;18.70;1.00
10263;DHT22;5177;50.068;8.156;2023-07-31T00:04:12;18.70;99.90
10263;DHT22;5177;50.068;8.156;2023-07-31T00:06:37;18.70;99.90
10263;DHT22;5177;50.068;8.156;2023-07-31T00:09:03;18.80;99.90
10263;DHT22;5177;50.068;8.156;2023-07-31T00:11:28;18.90;1.00
10263;DHT22;5177;50.068;8.156;2023-07-31T00:13:54;18.90;1.00
10263;DHT22;5177;50.068;8.156;2023-07-31T00:16:19;19.00;1.00
10263;DHT22;5177;50.068;8.156;2023-07-31T00:18:45;19.00;1.00
10263;DHT22;5177;50.068;8.156;2023-07-31T00:21:11;19.10;1.00
10263;DHT22;5177;50.068;8.156;2023-07-31T00:23:36;19.10;99.90
10263;DHT22;5177;50.068;8.156;2023-07-31T00:26:01;19.10;99.90
10263;DHT22;5177;50.068;8.156;2023-07-31T00:28:27;19.00;99.90
10263;DHT22;5177;50.068;8.156;2023-07-31T00:30:54;19.00;99.90
10263;DHT22;5177;50.068;8.156;2023-07-31T00:33:19;19.10;99.90
10263;DHT22;5177;50.068;8.156;2023-07-31T00:35:45;19.10;99.90
10263;DHT22;5177;50.068;8.156;2023-07-31T00:38:10;19.10;99.90
10263;DHT22;5177;50.068;8.156;2023-07-31T00:40:36;19.10;99.90
10263;DHT22;5177;50.068;8.156;2023-07-31T00:43:02;19.00;1.00
10263;DHT22;5177;50.068;8.156;2023-07-31T00:45:28;19.00;1.00
10263;DHT22;5177;50.068;8.156;2023-07-31T00:47:54;19.00;1.00
10263;DHT22;5177;50.068;8.156;2023-07-31T00:50:19;19.00;1.00
10263;DHT22;5177;50.068;8.156;2023-07-31T00:52:45;18.90;1.00
10263;DHT22;5177;50.068;8.156;2023-07-31T00:55:10;18.90;1.00
10263;DHT22;5177;50.068;8.156;2023-07-31T00:57:36;18.90;1.00
10263;DHT22;5177;50.068;8.156;2023-07-31T01:00:02;18.80;1.00
10263;DHT22;5177;50.068;8.156;2023-07-31T01:02:28;18.80;6.30
10263;DHT22;5177;50.068;8.156;2023-07-31T01:04:54;18.90;1.00
10263;DHT22;5177;50.068;8.156;2023-07-31T01:07:39;18.90;12.80
10263;DHT22;5177;50.068;8.156;2023-07-31T01:10:18;18.80;1.00
10263;DHT22;5177;50.068;8.156;2023-07-31T01:12:45;18.80;99.90
10263;DHT22;5177;50.068;8.156;2023-07-31T01:15:12;18.70;1.00
10263;DHT22;5177;50.068;8.156;2023-07-31T01:17:39;18.70;12.70
10263;DHT22;5177;50.068;8.156;2023-07-31T01:20:18;18.80;47.00
10263;DHT22;5177;50.068;8.156;2023-07-31T01:22:49;18.80;54.20
10263;DHT22;5177;50.068;8.156;2023-07-31T01:27:58;18.80;1.00
10263;DHT22;5177;50.068;8.156;2023-07-31T01:30:25;18.90;99.90
10263;DHT22;5177;50.068;8.156;2023-07-31T01:32:53;18.90;99.90
10263;DHT22;5177;50.068;8.156;2023-07-31T01:35:19;18.90;99.90
10263;DHT22;5177;50.068;8.156;2023-07-31T01:37:45;18.90;99.90
10263;DHT22;5177;50.068;8.156;2023-07-31T01:40:11;19.00;99.90
10263;DHT22;5177;50.068;8.156;2023-07-31T01:42:36;19.00;99.90
10263;DHT22;5177;50.068;8.156;2023-07-31T01:45:02;19.00;99.90
10263;DHT22;5177;50.068;8.156;2023-07-31T01:47:27;19.10;99.90
10263;DHT22;5177;50.068;8.156;2023-07-31T01:49:53;19.10;99.90
10263;DHT22;5177;50.068;8.156;2023-07-31T01:52:18;19.00;99.90
10263;DHT22;5177;50.068;8.156;2023-07-31T01:54:44;19.10;99.90
10263;DHT22;5177;50.068;8.156;2023-07-31T01:57:09;19.10;99.90
10263;DHT22;5177;50.068;8.156;2023-07-31T01:59:35;18.90;99.90
10263;DHT22;5177;50.068;8.156;2023-07-31T02:02:00;19.00;99.90
10263;DHT22;5177;50.068;8.156;2023-07-31T02:04:26;19.00;99.90
10263;DHT22;5177;50.068;8.156;2023-07-31T02:06:52;19.00;99.90
10263;DHT22;5177;50.068;8.156;2023-07-31T02:09:17;19.00;99.90
10263;DHT22;5177;50.068;8.156;2023-07-31T02:11:43;19.00;99.90
10263;DHT22;5177;50.068;8.156;2023-07-31T02:14:08;19.00;99.90
10263;DHT22;5177;50.068;8.156;2023-07-31T02:16:34;19.00;99.90
10263;DHT22;5177;50.068;8.156;2023-07-31T02:18:59;19.00;99.90
10263;DHT22;5177;50.068;8.156;2023-07-31T02:21:25;19.00;99.90
10263;DHT22;5177;50.068;8.156;2023-07-31T02:23:50;18.90;99.90
10263;DHT22;5177;50.068;8.156;2023-07-31T02:26:16;18.90;99.90
10263;DHT22;5177;50.068;8.156;2023-07-31T02:28:41;18.90;99.90
10263;DHT22;5177;50.068;8.156;2023-07-31T02:31:08;18.90;99.90
10263;DHT22;5177;50.068;8.156;2023-07-31T02:33:34;18.90;99.90
10263;DHT22;5177;50.068;8.156;2023-07-31T02:35:59;18.90;99.90
10263;DHT22;5177;50.068;8.156;2023-07-31T02:38:25;18.80;99.90
10263;DHT22;5177;50.068;8.156;2023-07-31T02:40:50;18.90;99.90
10263;DHT22;5177;50.068;8.156;2023-07-31T02:43:16;18.90;99.90
10263;DHT22;5177;50.068;8.156;2023-07-31T02:45:41;18.90;99.90
10263;DHT22;5177;50.068;8.156;2023-07-31T02:48:06;19.00;99.90
10263;DHT22;5177;50.068;8.156;2023-07-31T02:50:32;19.00;99.90
10263;DHT22;5177;50.068;8.156;2023-07-31T02:52:58;19.00;1.00
10263;DHT22;5177;50.068;8.156;2023-07-31T02:55:23;19.00;1.00
10263;DHT22;5177;50.068;8.156;2023-07-31T02:57:49;18.90;69.10
10263;DHT22;5177;50.068;8.156;2023-07-31T03:00:15;18.80;99.90
10263;DHT22;5177;50.068;8.156;2023-07-31T03:02:40;18.70;99.90
10263;DHT22;5177;50.068;8.156;2023-07-31T03:05:06;18.70;1.00
10263;DHT22;5177;50.068;8.156;2023-07-31T03:07:31;18.60;99.90
10263;DHT22;5177;50.068;8.156;2023-07-31T03:09:57;18.60;1.00
10263;DHT22;5177;50.068;8.156;2023-07-31T03:12:22;18.60;1.00
10263;DHT22;5177;50.068;8.156;2023-07-31T03:14:48;18.50;1.00
10263;DHT22;5177;50.068;8.156;2023-07-31T03:17:13;18.50;1.00
10263;DHT22;5177;50.068;8.156;2023-07-31T03:19:39;18.50;1.00
10263;DHT22;5177;50.068;8.156;2023-07-31T03:22:04;18.60;1.00
10263;DHT22;5177;50.068;8.156;2023-07-31T03:24:30;18.60;1.00
10263;DHT22;5177;50.068;8.156;2023-07-31T03:26:55;18.60;1.00
10263;DHT22;5177;50.068;8.156;2023-07-31T03:29:21;18.50;1.00
10263;DHT22;5177;50.068;8.156;2023-07-31T03:31:47;18.60;1.00
10263;DHT22;5177;50.068;8.156;2023-07-31T03:34:12;18.60;1.00
10263;DHT22;5177;50.068;8.156;2023-07-31T03:36:37;18.60;1.00
10263;DHT22;5177;50.068;8.156;2023-07-31T03:39:03;18.70;1.00
10263;DHT22;5177;50.068;8.156;2023-07-31T03:41:28;18.60;1.00
10263;DHT22;5177;50.068;8.156;2023-07-31T03:43:54;18.60;99.90
10263;DHT22;5177;50.068;8.156;2023-07-31T03:46:22;18.70;99.90
10263;DHT22;5177;50.068;8.156;2023-07-31T03:48:48;18.60;99.90
10263;DHT22;5177;50.068;8.156;2023-07-31T03:51:14;18.60;99.90
10263;DHT22;5177;50.068;8.156;2023-07-31T03:53:39;18.60;99.90
10263;DHT22;5177;50.068;8.156;2023-07-31T03:56:05;18.70;99.90
10263;DHT22;5177;50.068;8.156;2023-07-31T03:58:30;18.70;99.90
10263;DHT22;5177;50.068;8.156;2023-07-31T04:00:56;18.60;99.90
10263;DHT22;5177;50.068;8.156;2023-07-31T04:03:21;18.60;99.90
10263;DHT22;5177;50.068;8.156;2023-07-31T04:05:47;18.70;99.90
10263;DHT22;5177;50.068;8.156;2023-07-31T04:08:12;18.60;99.90
10263;DHT22;5177;50.068;8.156;2023-07-31T04:10:38;18.50;99.90
10263;DHT22;5177;50.068;8.156;2023-07-31T04:13:03;18.50;99.90
10263;DHT22;5177;50.068;8.156;2023-07-31T04:15:29;18.50;1.00
10263;DHT22;5177;50.068;8.156;2023-07-31T04:17:55;18.50;99.90
10263;DHT22;5177;50.068;8.156;2023-07-31T04:20:20;18.50;1.00
10263;DHT22;5177;50.068;8.156;2023-07-31T04:22:46;18.40;99.90
10263;DHT22;5177;50.068;8.156;2023-07-31T04:25:11;18.40;99.90
10263;DHT22;5177;50.068;8.156;2023-07-31T04:27:37;18.50;99.90
10263;DHT22;5177;50.068;8.156;2023-07-31T04:30:02;18.50;99.90
10263;DHT22;5177;50.068;8.156;2023-07-31T04:32:28;18.40;99.90
10263;DHT22;5177;50.068;8.156;2023-07-31T04:34:55;18.40;99.90
10263;DHT22;5177;50.068;8.156;2023-07-31T04:37:20;18.40;1.00
10263;DHT22;5177;50.068;8.156;2023-07-31T04:39:45;18.40;1.00
10263;DHT22;5177;50.068;8.156;2023-07-31T04:42:11;18.40;1.00
10263;DHT22;5177;50.068;8.156;2023-07-31T04:44:37;18.40;1.00
10263;DHT22;5177;50.068;8.156;2023-07-31T04:47:02;18.40;1.00
10263;DHT22;5177;50.068;8.156;2023-07-31T04:49:28;18.40;1.00
10263;DHT22;5177;50.068;8.156;2023-07-31T04:51:53;18.40;1.00
10263;DHT22;5177;50.068;8.156;2023-07-31T04:54:19;18.40;1.00
10263;DHT22;5177;50.068;8.156;2023-07-31T04:56:44;18.50;99.90
10263;DHT22;5177;50.068;8.156;2023-07-31T04:59:10;18.40;1.00
10263;DHT22;5177;50.068;8.156;2023-07-31T05:01:35;18.40;1.00
10263;DHT22;5177;50.068;8.156;2023-07-31T05:04:01;18.40;1.00
10263;DHT22;5177;50.068;8.156;2023-07-31T05:06:26;18.30;1.00
10263;DHT22;5177;50.068;8.156;2023-07-31T05:08:52;18.30;1.00
10263;DHT22;5177;50.068;8.156;2023-07-31T05:11:17;18.30;1.00
10263;DHT22;5177;50.068;8.156;2023-07-31T05:13:43;18.40;1.00
10263;DHT22;5177;50.068;8.156;2023-07-31T05:16:08;18.40;1.00
10263;DHT22;5177;50.068;8.156;2023-07-31T05:18:34;18.40;1.00
10263;DHT22;5177;50.068;8.156;2023-07-31T05:20:59;18.40;1.00
10263;DHT22;5177;50.068;8.156;2023-07-31T05:23:25;18.40;1.00
10263;DHT22;5177;50.068;8.156;2023-07-31T05:25:50;18.50;1.00
10263;DHT22;5177;50.068;8.156;2023-07-31T05:28:16;18.40;1.00
10263;DHT22;5177;50.068;8.156;2023-07-31T05:30:41;18.40;1.00
10263;DHT22;5177;50.068;8.156;2023-07-31T05:33:07;18.40;1.00
10263;DHT22;5177;50.068;8.156;2023-07-31T05:35:32;18.40;1.00
10263;DHT22;5177;50.068;8.156;2023-07-31T05:37:58;18.40;99.90
10263;DHT22;5177;50.068;8.156;2023-07-31T05:40:23;18.40;1.00
10263;DHT22;5177;50.068;8.156;2023-07-31T05:42:49;18.50;1.00
10263;DHT22;5177;50.068;8.156;2023-07-31T05:45:14;18.40;99.90
10263;DHT22;5177;50.068;8.156;2023-07-31T05:47:40;18.50;99.90
10263;DHT22;5177;50.068;8.156;2023-07-31T05:50:05;18.50;1.00
10263;DHT22;5177;50.068;8.156;2023-07-31T05:52:31;18.50;99.90
10263;DHT22;5177;50.068;8.156;2023-07-31T05:54:57;18.60;99.90
10263;DHT22;5177;50.068;8.156;2023-07-31T05:57:22;18.50;99.90
10263;DHT22;5177;50.068;8.156;2023-07-31T05:59:48;18.60;99.90
10263;DHT22;5177;50.068;8.156;2023-07-31T06:02:13;18.70;99.90
10263;DHT22;5177;50.068;8.156;2023-07-31T06:04:39;18.80;99.90
10263;DHT22;5177;50.068;8.156;2023-07-31T06:07:04;18.70;99.90
10263;DHT22;5177;50.068;8.156;2023-07-31T06:09:30;18.80;99.90
10263;DHT22;5177;50.068;8.156;2023-07-31T06:11:56;18.90;99.90
10263;DHT22;5177;50.068;8.156;2023-07-31T06:14:21;19.00;99.90
10263;DHT22;5177;50.068;8.156;2023-07-31T06:16:47;18.90;99.90
10263;DHT22;5177;50.068;8.156;2023-07-31T06:19:12;19.10;13.20
10263;DHT22;5177;50.068;8.156;2023-07-31T06:21:38;19.20;1.00
10263;DHT22;5177;50.068;8.156;2023-07-31T06:24:04;19.30;1.00
10263;DHT22;5177;50.068;8.156;2023-07-31T06:26:30;19.20;1.00
10263;DHT22;5177;50.068;8.156;2023-07-31T06:28:58;19.20;1.00
10263;DHT22;5177;50.068;8.156;2023-07-31T06:31:24;19.30;1.00
10263;DHT22;5177;50.068;8.156;2023-07-31T06:33:50;19.20;1.00
10263;DHT22;5177;50.068;8.156;2023-07-31T06:36:16;19.20;1.00
10263;DHT22;5177;50.068;8.156;2023-07-31T06:38:41;19.30;1.00
10263;DHT22;5177;50.068;8.156;2023-07-31T06:41:07;19.30;1.00
10263;DHT22;5177;50.068;8.156;2023-07-31T06:43:32;19.40;1.00
10263;DHT22;5177;50.068;8.156;2023-07-31T06:45:59;19.60;1.00
10263;DHT22;5177;50.068;8.156;2023-07-31T06:48:25;19.60;1.00
10263;DHT22;5177;50.068;8.156;2023-07-31T06:50:50;19.80;99.90
10263;DHT22;5177;50.068;8.156;2023-07-31T06:53:16;19.80;99.90
10263;DHT22;5177;50.068;8.156;2023-07-31T06:55:41;19.80;99.90
10263;DHT22;5177;50.068;8.156;2023-07-31T06:58:07;19.60;99.90
10263;DHT22;5177;50.068;8.156;2023-07-31T07:00:32;19.60;99.90
10263;DHT22;5177;50.068;8.156;2023-07-31T07:02:58;19.70;1.00
10263;DHT22;5177;50.068;8.156;2023-07-31T07:05:24;19.60;1.00
10263;DHT22;5177;50.068;8.156;2023-07-31T07:07:50;19.60;1.00
10263;DHT22;5177;50.068;8.156;2023-07-31T07:10:16;19.70;1.00
10263;DHT22;5177;50.068;8.156;2023-07-31T07:12:42;20.00;1.00
10263;DHT22;5177;50.068;8.156;2023-07-31T07:15:08;20.40;99.90
10263;DHT22;5177;50.068;8.156;2023-07-31T07:17:33;20.50;99.90
10263;DHT22;5177;50.068;8.156;2023-07-31T07:19:59;20.90;1.00
10263;DHT22;5177;50.068;8.156;2023-07-31T07:22:25;21.10;1.00
10263;DHT22;5177;50.068;8.156;2023-07-31T07:24:51;21.10;1.00
10263;DHT22;5177;50.068;8.156;2023-07-31T07:27:16;21.10;1.00
10263;DHT22;5177;50.068;8.156;2023-07-31T07:29:42;21.20;1.00
10263;DHT22;5177;50.068;8.156;2023-07-31T07:32:08;21.20;1.00
10263;DHT22;5177;50.068;8.156;2023-07-31T07:34:33;21.10;1.00
10263;DHT22;5177;50.068;8.156;2023-07-31T07:36:59;21.00;1.00
10263;DHT22;5177;50.068;8.156;2023-07-31T07:39:24;20.80;1.00
10263;DHT22;5177;50.068;8.156;2023-07-31T07:41:50;20.80;1.00
10263;DHT22;5177;50.068;8.156;2023-07-31T07:44:15;20.80;1.00
10263;DHT22;5177;50.068;8.156;2023-07-31T07:46:41;20.90;1.00
10263;DHT22;5177;50.068;8.156;2023-07-31T07:49:07;21.00;1.00
10263;DHT22;5177;50.068;8.156;2023-07-31T07:51:32;21.10;1.00
10263;DHT22;5177;50.068;8.156;2023-07-31T07:53:58;21.30;1.00
10263;DHT22;5177;50.068;8.156;2023-07-31T07:56:25;21.20;1.00
10263;DHT22;5177;50.068;8.156;2023-07-31T07:58:50;21.10;1.00
10263;DHT22;5177;50.068;8.156;2023-07-31T08:01:16;21.00;1.00
10263;DHT22;5177;50.068;8.156;2023-07-31T08:03:41;21.10;1.00
10263;DHT22;5177;50.068;8.156;2023-07-31T08:06:07;20.90;1.00
10263;DHT22;5177;50.068;8.156;2023-07-31T08:08:37;20.90;1.00
10263;DHT22;5177;50.068;8.156;2023-07-31T08:11:02;20.90;1.00
10263;DHT22;5177;50.068;8.156;2023-07-31T08:13:28;20.90;1.00
10263;DHT22;5177;50.068;8.156;2023-07-31T08:15:54;20.90;21.00
10263;DHT22;5177;50.068;8.156;2023-07-31T08:18:19;20.80;9.00
10263;DHT22;5177;50.068;8.156;2023-07-31T08:20:45;20.80;26.50
10263;DHT22;5177;50.068;8.156;2023-07-31T08:23:10;20.80;1.00
10263;DHT22;5177;50.068;8.156;2023-07-31T08:25:39;20.80;1.00
10263;DHT22;5177;50.068;8.156;2023-07-31T08:28:04;20.80;1.00
10263;DHT22;5177;50.068;8.156;2023-07-31T08:30:30;20.80;73.80
10263;DHT22;5177;50.068;8.156;2023-07-31T08:32:56;20.80;1.00
10263;DHT22;5177;50.068;8.156;2023-07-31T08:35:22;20.80;27.40
10263;DHT22;5177;50.068;8.156;2023-07-31T08:37:48;20.80;1.00
10263;DHT22;5177;50.068;8.156;2023-07-31T08:40:13;21.00;25.00
10263;DHT22;5177;50.068;8.156;2023-07-31T08:42:47;21.00;1.00
10263;DHT22;5177;50.068;8.156;2023-07-31T08:45:17;21.00;17.10
10263;DHT22;5177;50.068;8.156;2023-07-31T08:47:50;21.00;71.40
10263;DHT22;5177;50.068;8.156;2023-07-31T08:50:16;21.00;59.60
10263;DHT22;5177;50.068;8.156;2023-07-31T08:52:42;21.10;99.90
10263;DHT22;5177;50.068;8.156;2023-07-31T08:55:08;21.10;99.90
10263;DHT22;5177;50.068;8.156;2023-07-31T08:57:34;21.20;1.00
10263;DHT22;5177;50.068;8.156;2023-07-31T09:00:00;21.10;99.90
10263;DHT22;5177;50.068;8.156;2023-07-31T09:02:27;21.10;99.90
10263;DHT22;5177;50.068;8.156;2023-07-31T09:04:55;21.00;99.90
10263;DHT22;5177;50.068;8.156;2023-07-31T09:07:20;21.00;99.90
10263;DHT22;5177;50.068;8.156;2023-07-31T09:09:46;21.10;15.30
10263;DHT22;5177;50.068;8.156;2023-07-31T09:12:11;21.10;1.00
10263;DHT22;5177;50.068;8.156;2023-07-31T09:14:37;21.30;1.00
10263;DHT22;5177;50.068;8.156;2023-07-31T09:17:03;21.50;1.00
10263;DHT22;5177;50.068;8.156;2023-07-31T09:19:32;21.40;1.00
10263;DHT22;5177;50.068;8.156;2023-07-31T09:21:59;21.50;1.00
10263;DHT22;5177;50.068;8.156;2023-07-31T09:24:25;21.50;1.00
10263;DHT22;5177;50.068;8.156;2023-07-31T09:26:53;21.50;1.00
10263;DHT22;5177;50.068;8.156;2023-07-31T09:29:19;21.40;1.00
10263;DHT22;5177;50.068;8.156;2023-07-31T09:31:44;21.40;1.00
10263;DHT22;5177;50.068;8.156;2023-07-31T09:34:10;21.40;1.00
10263;DHT22;5177;50.068;8.156;2023-07-31T09:36:45;21.40;1.00
10263;DHT22;5177;50.068;8.156;2023-07-31T09:39:12;21.50;1.00
10263;DHT22;5177;50.068;8.156;2023-07-31T09:41:42;21.50;1.00
10263;DHT22;5177;50.068;8.156;2023-07-31T09:44:08;21.60;99.90
10263;DHT22;5177;50.068;8.156;2023-07-31T09:46:34;21.80;99.90
10263;DHT22;5177;50.068;8.156;2023-07-31T09:49:04;21.90;99.90
10263;DHT22;5177;50.068;8.156;2023-07-31T09:51:30;21.90;99.90
10263;DHT22;5177;50.068;8.156;2023-07-31T09:53:56;21.90;99.90
10263;DHT22;5177;50.068;8.156;2023-07-31T09:56:21;21.90;99.90
10263;DHT22;5177;50.068;8.156;2023-07-31T09:58:50;21.90;99.90
10263;DHT22;5177;50.068;8.156;2023-07-31T10:01:16;21.80;99.90
10263;DHT22;5177;50.068;8.156;2023-07-31T10:03:42;21.90;99.90
10263;DHT22;5177;50.068;8.156;2023-07-31T10:06:07;21.80;99.90
10263;DHT22;5177;50.068;8.156;2023-07-31T10:08:34;21.80;99.90
10263;DHT22;5177;50.068;8.156;2023-07-31T10:11:01;21.90;99.90
10263;DHT22;5177;50.068;8.156;2023-07-31T10:13:28;22.00;99.90
10263;DHT22;5177;50.068;8.156;2023-07-31T10:15:54;22.10;99.90
10263;DHT22;5177;50.068;8.156;2023-07-31T10:18:23;22.10;98.30
10263;DHT22;5177;50.068;8.156;2023-07-31T10:20:48;22.20;67.00
10263;DHT22;5177;50.068;8.156;2023-07-31T10:23:14;22.40;37.90
10263;DHT22;5177;50.068;8.156;2023-07-31T10:25:40;22.60;1.00
10263;DHT22;5177;50.068;8.156;2023-07-31T10:28:07;22.80;1.00
10263;DHT22;5177;50.068;8.156;2023-07-31T10:30:33;22.70;1.00
10263;DHT22;5177;50.068;8.156;2023-07-31T10:33:00;22.50;1.00
10263;DHT22;5177;50.068;8.156;2023-07-31T10:35:26;22.50;1.00
10263;DHT22;5177;50.068;8.156;2023-07-31T10:37:52;22.60;1.00
10263;DHT22;5177;50.068;8.156;2023-07-31T10:40:19;22.70;1.00
10263;DHT22;5177;50.068;8.156;2023-07-31T10:42:48;22.60;1.00
10263;DHT22;5177;50.068;8.156;2023-07-31T10:45:14;22.50;1.00
10263;DHT22;5177;50.068;8.156;2023-07-31T10:47:48;22.50;1.00
10263;DHT22;5177;50.068;8.156;2023-07-31T10:50:21;22.60;1.00
10263;DHT22;5177;50.068;8.156;2023-07-31T10:52:56;22.80;1.00
10263;DHT22;5177;50.068;8.156;2023-07-31T10:57:48;22.90;1.00
10263;DHT22;5177;50.068;8.156;2023-07-31T11:00:20;22.80;1.00
10263;DHT22;5177;50.068;8.156;2023-07-31T11:05:42;23.10;1.00
10263;DHT22;5177;50.068;8.156;2023-07-31T11:08:14;23.10;1.00
10263;DHT22;5177;50.068;8.156;2023-07-31T11:10:40;23.20;1.00
10263;DHT22;5177;50.068;8.156;2023-07-31T11:13:06;23.30;1.00
10263;DHT22;5177;50.068;8.156;2023-07-31T11:15:31;23.40;1.00
10263;DHT22;5177;50.068;8.156;2023-07-31T11:17:57;23.50;1.00
10263;DHT22;5177;50.068;8.156;2023-07-31T11:20:25;23.40;99.90
10263;DHT22;5177;50.068;8.156;2023-07-31T11:22:52;23.40;1.00
10263;DHT22;5177;50.068;8.156;2023-07-31T11:25:17;23.50;99.90
10263;DHT22;5177;50.068;8.156;2023-07-31T11:27:43;23.50;99.90
10263;DHT22;5177;50.068;8.156;2023-07-31T11:30:09;23.60;99.90
10263;DHT22;5177;50.068;8.156;2023-07-31T11:32:38;23.60;99.90
10263;DHT22;5177;50.068;8.156;2023-07-31T11:35:04;23.60;99.90
10263;DHT22;5177;50.068;8.156;2023-07-31T11:37:43;23.70;99.90
10263;DHT22;5177;50.068;8.156;2023-07-31T11:40:09;23.90;99.90
10263;DHT22;5177;50.068;8.156;2023-07-31T11:42:35;23.90;99.90
10263;DHT22;5177;50.068;8.156;2023-07-31T11:45:04;24.00;99.90
10263;DHT22;5177;50.068;8.156;2023-07-31T11:47:31;24.10;99.90
10263;DHT22;5177;50.068;8.156;2023-07-31T11:49:59;24.00;99.90
10263;DHT22;5177;50.068;8.156;2023-07-31T11:52:25;24.00;99.90
10263;DHT22;5177;50.068;8.156;2023-07-31T11:54:51;24.00;99.90
10263;DHT22;5177;50.068;8.156;2023-07-31T11:57:17;24.10;99.90
10263;DHT22;5177;50.068;8.156;2023-07-31T11:59:43;24.20;99.90
10263;DHT22;5177;50.068;8.156;2023-07-31T12:02:09;24.10;99.90
10263;DHT22;5177;50.068;8.156;2023-07-31T12:04:35;24.00;99.90
10263;DHT22;5177;50.068;8.156;2023-07-31T12:07:00;23.90;99.90
10263;DHT22;5177;50.068;8.156;2023-07-31T12:09:26;23.80;99.90
10263;DHT22;5177;50.068;8.156;2023-07-31T12:11:51;23.70;99.90
10263;DHT22;5177;50.068;8.156;2023-07-31T12:14:24;23.70;99.90
10263;DHT22;5177;50.068;8.156;2023-07-31T12:16:53;23.70;99.90
10263;DHT22;5177;50.068;8.156;2023-07-31T12:19:19;23.70;99.90
10263;DHT22;5177;50.068;8.156;2023-07-31T12:21:44;23.70;99.90
10263;DHT22;5177;50.068;8.156;2023-07-31T12:24:10;23.70;99.90
10263;DHT22;5177;50.068;8.156;2023-07-31T12:26:35;23.80;99.90
10263;DHT22;5177;50.068;8.156;2023-07-31T12:29:01;23.90;99.90
10263;DHT22;5177;50.068;8.156;2023-07-31T12:31:27;24.10;99.90
10263;DHT22;5177;50.068;8.156;2023-07-31T12:33:53;24.30;99.90
10263;DHT22;5177;50.068;8.156;2023-07-31T12:36:20;24.60;99.90
10263;DHT22;5177;50.068;8.156;2023-07-31T12:38:46;24.70;99.90
10263;DHT22;5177;50.068;8.156;2023-07-31T12:41:11;24.90;99.90
10263;DHT22;5177;50.068;8.156;2023-07-31T12:43:38;25.00;99.90
10263;DHT22;5177;50.068;8.156;2023-07-31T12:46:04;25.50;99.90
10263;DHT22;5177;50.068;8.156;2023-07-31T12:48:30;25.70;93.60
10263;DHT22;5177;50.068;8.156;2023-07-31T12:50:56;25.80;83.00
10263;DHT22;5177;50.068;8.156;2023-07-31T12:53:22;26.10;40.90
10263;DHT22;5177;50.068;8.156;2023-07-31T12:55:47;26.20;17.10
10263;DHT22;5177;50.068;8.156;2023-07-31T12:58:13;26.20;14.20
10263;DHT22;5177;50.068;8.156;2023-07-31T13:00:38;26.00;24.00
10263;DHT22;5177;50.068;8.156;2023-07-31T13:03:03;25.80;25.90
10263;DHT22;5177;50.068;8.156;2023-07-31T13:05:29;25.90;36.70
10263;DHT22;5177;50.068;8.156;2023-07-31T13:07:55;25.70;44.60
10263;DHT22;5177;50.068;8.156;2023-07-31T13:10:21;26.00;31.40
10263;DHT22;5177;50.068;8.156;2023-07-31T13:12:47;25.60;53.60
10263;DHT22;5177;50.068;8.156;2023-07-31T13:15:13;25.40;99.90
10263;DHT22;5177;50.068;8.156;2023-07-31T13:17:39;25.40;99.90
10263;DHT22;5177;50.068;8.156;2023-07-31T13:20:04;25.00;99.90
10263;DHT22;5177;50.068;8.156;2023-07-31T13:22:30;25.20;99.90
10263;DHT22;5177;50.068;8.156;2023-07-31T13:24:56;25.30;99.90
10263;DHT22;5177;50.068;8.156;2023-07-31T13:27:21;25.20;99.90
10263;DHT22;5177;50.068;8.156;2023-07-31T13:29:53;24.80;99.90
10263;DHT22;5177;50.068;8.156;2023-07-31T13:32:19;24.60;99.90
10263;DHT22;5177;50.068;8.156;2023-07-31T13:34:45;24.40;99.90
10263;DHT22;5177;50.068;8.156;2023-07-31T13:37:11;24.30;99.90
10263;DHT22;5177;50.068;8.156;2023-07-31T13:39:37;24.20;99.90
10263;DHT22;5177;50.068;8.156;2023-07-31T13:42:02;24.30;99.90
10263;DHT22;5177;50.068;8.156;2023-07-31T13:44:28;24.30;99.90
10263;DHT22;5177;50.068;8.156;2023-07-31T13:46:54;24.20;99.90
10263;DHT22;5177;50.068;8.156;2023-07-31T13:49:19;24.00;99.90
10263;DHT22;5177;50.068;8.156;2023-07-31T13:51:45;23.90;99.90
10263;DHT22;5177;50.068;8.156;2023-07-31T13:54:11;23.90;1.00
10263;DHT22;5177;50.068;8.156;2023-07-31T13:56:37;23.50;99.90
10263;DHT22;5177;50.068;8.156;2023-07-31T13:59:02;23.50;1.00
10263;DHT22;5177;50.068;8.156;2023-07-31T14:01:28;23.30;1.00
10263;DHT22;5177;50.068;8.156;2023-07-31T14:03:53;23.10;1.00
10263;DHT22;5177;50.068;8.156;2023-07-31T14:06:19;23.10;1.00
10263;DHT22;5177;50.068;8.156;2023-07-31T14:08:44;23.10;1.00
10263;DHT22;5177;50.068;8.156;2023-07-31T14:11:10;23.00;1.00
10263;DHT22;5177;50.068;8.156;2023-07-31T14:13:35;23.00;1.00
10263;DHT22;5177;50.068;8.156;2023-07-31T14:16:01;22.90;1.00
10263;DHT22;5177;50.068;8.156;2023-07-31T14:18:26;22.90;1.00
10263;DHT22;5177;50.068;8.156;2023-07-31T14:20:52;22.90;1.00
10263;DHT22;5177;50.068;8.156;2023-07-31T14:23:18;22.90;1.00
10263;DHT22;5177;50.068;8.156;2023-07-31T14:25:45;22.90;1.00
10263;DHT22;5177;50.068;8.156;2023-07-31T14:28:11;22.90;1.00
10263;DHT22;5177;50.068;8.156;2023-07-31T14:30:36;22.90;1.00
10263;DHT22;5177;50.068;8.156;2023-07-31T14:33:02;22.90;1.00
10263;DHT22;5177;50.068;8.156;2023-07-31T14:35:27;22.90;1.00
10263;DHT22;5177;50.068;8.156;2023-07-31T14:37:53;22.90;1.00
10263;DHT22;5177;50.068;8.156;2023-07-31T14:40:18;22.80;1.00
10263;DHT22;5177;50.068;8.156;2023-07-31T14:42:44;22.90;1.00
10263;DHT22;5177;50.068;8.156;2023-07-31T14:45:09;22.90;1.00
10263;DHT22;5177;50.068;8.156;2023-07-31T14:47:35;22.90;1.00
10263;DHT22;5177;50.068;8.156;2023-07-31T14:50:01;22.80;1.00
10263;DHT22;5177;50.068;8.156;2023-07-31T14:52:27;22.80;1.00
10263;DHT22;5177;50.068;8.156;2023-07-31T14:54:52;22.90;1.00
10263;DHT22;5177;50.068;8.156;2023-07-31T14:57:18;22.90;1.00
10263;DHT22;5177;50.068;8.156;2023-07-31T14:59:44;22.90;1.00
10263;DHT22;5177;50.068;8.156;2023-07-31T15:02:10;22.90;1.00
10263;DHT22;5177;50.068;8.156;2023-07-31T15:04:36;23.00;1.00
10263;DHT22;5177;50.068;8.156;2023-07-31T15:07:01;23.10;1.00
10263;DHT22;5177;50.068;8.156;2023-07-31T15:09:27;23.10;1.00
10263;DHT22;5177;50.068;8.156;2023-07-31T15:11:53;23.00;1.00
10263;DHT22;5177;50.068;8.156;2023-07-31T15:14:18;22.90;6.10
10263;DHT22;5177;50.068;8.156;2023-07-31T15:16:44;22.70;18.60
10263;DHT22;5177;50.068;8.156;2023-07-31T15:19:09;22.70;1.00
10263;DHT22;5177;50.068;8.156;2023-07-31T15:21:36;22.50;5.80
10263;DHT22;5177;50.068;8.156;2023-07-31T15:24:02;22.50;36.10
10263;DHT22;5177;50.068;8.156;2023-07-31T15:26:27;22.40;1.00
10263;DHT22;5177;50.068;8.156;2023-07-31T15:29:00;22.40;1.00
10263;DHT22;5177;50.068;8.156;2023-07-31T15:31:27;22.40;1.00
10263;DHT22;5177;50.068;8.156;2023-07-31T15:33:52;22.40;1.00
10263;DHT22;5177;50.068;8.156;2023-07-31T15:36:18;22.40;1.00
10263;DHT22;5177;50.068;8.156;2023-07-31T15:38:43;22.50;1.00
10263;DHT22;5177;50.068;8.156;2023-07-31T15:41:09;22.50;1.00
10263;DHT22;5177;50.068;8.156;2023-07-31T15:43:34;22.50;1.00
10263;DHT22;5177;50.068;8.156;2023-07-31T15:46:00;22.40;1.00
10263;DHT22;5177;50.068;8.156;2023-07-31T15:48:25;22.20;1.00
10263;DHT22;5177;50.068;8.156;2023-07-31T15:50:50;22.20;1.00
10263;DHT22;5177;50.068;8.156;2023-07-31T15:53:16;22.10;1.00
10263;DHT22;5177;50.068;8.156;2023-07-31T15:55:42;22.10;1.00